createdAt,value
2023-04-13T00:01:23.509Z,81.28
2023-04-13T00:04:45.261Z,81.35
2023-04-13T00:08:09.267Z,82.19
2023-04-13T00:11:32.070Z,82.41
2023-04-13T00:14:53.934Z,82.51
2023-04-13T00:18:15.764Z,82.37
2023-04-13T00:21:37.999Z,81.95
2023-04-13T00:25:01.451Z,81.83
2023-04-13T00:28:24.342Z,82.56
2023-04-13T00:31:47.298Z,82.76
2023-04-13T00:35:10.733Z,82.67
2023-04-13T00:38:33.171Z,82.91
2023-04-13T00:41:56.074Z,82.99
2023-04-13T00:45:19.181Z,82.76
2023-04-13T00:48:41.248Z,83.20
2023-04-13T00:52:03.855Z,83.28
2023-04-13T00:55:25.773Z,82.98
2023-04-13T00:58:48.610Z,82.80
2023-04-13T01:02:10.419Z,83.00
2023-04-13T01:05:51.797Z,82.52
2023-04-13T01:09:19.720Z,83.11
2023-04-13T01:12:52.703Z,82.57
2023-04-13T01:16:21.301Z,82.41
2023-04-13T01:19:52.214Z,82.37
2023-04-13T01:23:28.482Z,82.70
2023-04-13T01:27:12.323Z,82.39
2023-04-13T01:30:37.587Z,82.88
2023-04-13T01:34:00.101Z,83.24
2023-04-13T01:37:25.790Z,83.42
2023-04-13T01:40:50.762Z,83.64
2023-04-13T01:44:14.116Z,83.14
2023-04-13T01:47:40.662Z,83.48
2023-04-13T01:51:24.330Z,83.76
2023-04-13T01:54:52.166Z,83.65
2023-04-13T01:58:15.832Z,84.17
2023-04-13T02:01:43.535Z,84.38
2023-04-13T02:05:09.631Z,85.37
2023-04-13T02:08:33.623Z,85.74
2023-04-13T02:11:55.377Z,86.27
2023-04-13T02:15:18.275Z,86.50
2023-04-13T02:18:41.170Z,87.12
2023-04-13T02:22:04.091Z,87.03
2023-04-13T02:25:25.985Z,87.09
2023-04-13T02:28:48.153Z,87.21
2023-04-13T02:32:10.554Z,87.05
2023-04-13T02:35:34.444Z,86.81
2023-04-13T02:38:58.478Z,86.42
2023-04-13T02:42:24.187Z,86.49
2023-04-13T02:45:46.289Z,86.06
2023-04-13T02:49:10.760Z,86.56
2023-04-13T02:52:39.166Z,87.22
2023-04-13T02:56:03.052Z,87.34
2023-04-13T02:59:25.642Z,87.39
2023-04-13T03:02:47.699Z,87.43
2023-04-13T03:06:12.298Z,86.99
2023-04-13T03:09:40.946Z,87.18
2023-04-13T03:13:05.886Z,86.95
2023-04-13T03:16:28.326Z,85.95
2023-04-13T03:19:52.092Z,85.30
2023-04-13T03:23:16.395Z,85.44
2023-04-13T03:26:39.339Z,85.13
2023-04-13T03:30:09.039Z,84.61
2023-04-13T03:33:40.503Z,85.25
2023-04-13T03:37:02.867Z,85.89
2023-04-13T03:40:25.110Z,85.43
2023-04-13T03:43:48.071Z,85.81
2023-04-13T03:47:11.475Z,86.05
2023-04-13T03:50:33.071Z,86.12
2023-04-13T03:53:55.638Z,86.08
2023-04-13T03:57:21.416Z,86.63
2023-04-13T04:00:44.451Z,85.50
2023-04-13T04:04:16.278Z,85.75
2023-04-13T04:07:38.561Z,86.69
2023-04-13T04:11:00.929Z,87.00
2023-04-13T04:14:24.377Z,85.86
2023-04-13T04:17:53.424Z,85.93
2023-04-13T04:21:21.653Z,86.21
2023-04-13T04:24:43.447Z,86.68
2023-04-13T04:28:06.340Z,86.62
2023-04-13T04:31:27.881Z,86.94
2023-04-13T04:34:53.080Z,86.61
2023-04-13T04:38:18.611Z,86.44
2023-04-13T04:41:40.578Z,86.20
2023-04-13T04:45:04.629Z,86.18
2023-04-13T04:48:31.706Z,85.69
2023-04-13T04:51:57.491Z,85.47
2023-04-13T04:55:21.300Z,85.37
2023-04-13T04:58:43.594Z,85.19
2023-04-13T05:02:06.092Z,85.27
2023-04-13T05:05:27.815Z,84.80
2023-04-13T05:08:49.794Z,84.87
2023-04-13T05:12:12.851Z,84.14
2023-04-13T05:15:38.451Z,84.23
2023-04-13T05:19:01.220Z,83.70
2023-04-13T05:22:42.154Z,83.68
2023-04-13T05:26:04.196Z,83.74
2023-04-13T05:29:27.441Z,83.32
2023-04-13T05:32:49.171Z,83.89
2023-04-13T05:36:11.562Z,83.91
2023-04-13T05:39:36.312Z,83.89
2023-04-13T05:42:57.915Z,83.13
2023-04-13T05:46:26.146Z,83.81
2023-04-13T05:49:48.318Z,83.45
2023-04-13T05:53:14.049Z,83.51
2023-04-13T05:56:42.959Z,83.50
2023-04-13T06:00:08.041Z,83.25
2023-04-13T06:03:43.492Z,83.46
2023-04-13T06:07:05.886Z,82.77
2023-04-13T06:10:28.325Z,82.90
2023-04-13T06:13:50.096Z,82.17
2023-04-13T06:17:11.548Z,82.31
2023-04-13T06:20:36.026Z,82.37
2023-04-13T06:23:58.020Z,82.32
2023-04-13T06:27:23.809Z,81.93
2023-04-13T06:30:45.820Z,81.36
2023-04-13T06:34:09.699Z,80.46
2023-04-13T06:37:34.139Z,79.90
2023-04-13T06:41:02.332Z,79.09
2023-04-13T06:44:27.060Z,79.26
2023-04-13T06:47:54.568Z,79.87
2023-04-13T06:51:16.180Z,79.49
2023-04-13T06:54:39.562Z,79.47
2023-04-13T06:58:14.353Z,78.32
2023-04-13T07:01:36.823Z,78.01
2023-04-13T07:04:59.568Z,77.65
2023-04-13T07:08:22.949Z,77.58
2023-04-13T07:11:46.254Z,77.40
2023-04-13T07:15:10.731Z,77.50
2023-04-13T07:18:33.475Z,77.88
2023-04-13T07:21:55.012Z,77.75
2023-04-13T07:25:17.059Z,77.59
2023-04-13T07:28:41.631Z,77.11
2023-04-13T07:32:08.489Z,77.35
2023-04-13T07:35:32.074Z,77.19
2023-04-13T07:38:55.342Z,77.16
2023-04-13T07:42:17.516Z,77.10
2023-04-13T07:45:45.972Z,75.97
2023-04-13T07:49:07.850Z,75.61
2023-04-13T07:52:31.588Z,75.42
2023-04-13T07:55:53.561Z,74.61
2023-04-13T07:59:15.884Z,74.87
2023-04-13T08:02:41.665Z,74.67
2023-04-13T08:06:08.424Z,74.87
2023-04-13T08:09:32.926Z,74.10
2023-04-13T08:12:54.687Z,74.39
2023-04-13T08:16:17.005Z,74.32
2023-04-13T08:19:40.586Z,74.07
2023-04-13T08:23:05.679Z,73.95
2023-04-13T08:26:27.716Z,73.67
2023-04-13T08:29:56.657Z,73.62
2023-04-13T08:33:18.577Z,73.12
2023-04-13T08:36:41.739Z,72.93
2023-04-13T08:40:07.742Z,72.02
2023-04-13T08:43:30.788Z,71.68
2023-04-13T08:46:53.558Z,71.57
2023-04-13T08:50:23.904Z,70.59
2023-04-13T08:53:49.896Z,70.60
2023-04-13T08:57:17.914Z,69.62
2023-04-13T09:00:41.736Z,69.40
2023-04-13T09:04:10.604Z,69.78
2023-04-13T09:07:37.097Z,69.37
2023-04-13T09:11:06.745Z,67.92
2023-04-13T09:14:29.222Z,67.52
2023-04-13T09:17:50.849Z,67.70
2023-04-13T09:21:14.905Z,65.84
2023-04-13T09:24:40.986Z,66.10
2023-04-13T09:28:08.619Z,65.18
2023-04-13T09:31:33.829Z,64.05
2023-04-13T09:35:00.012Z,64.06
2023-04-13T09:38:32.790Z,64.88
2023-04-13T09:41:54.923Z,64.40
2023-04-13T09:45:17.861Z,64.91
2023-04-13T09:48:40.124Z,62.43
2023-04-13T09:52:01.995Z,62.60
2023-04-13T09:55:24.350Z,63.91
2023-04-13T09:58:48.264Z,63.88
2023-04-13T10:02:13.213Z,62.92
2023-04-13T10:05:47.354Z,61.24
2023-04-13T10:09:21.223Z,61.52
2023-04-13T10:12:47.460Z,59.35
2023-04-13T10:16:33.882Z,60.76
2023-04-13T10:20:07.748Z,60.99
2023-04-13T10:23:32.082Z,60.46
2023-04-13T10:26:55.241Z,60.71
2023-04-13T10:30:18.713Z,60.68
2023-04-13T10:33:49.512Z,60.32
2023-04-13T10:37:21.539Z,59.38
2023-04-13T10:40:44.752Z,60.18
2023-04-13T10:44:08.026Z,60.70
2023-04-13T10:47:38.044Z,60.78
2023-04-13T10:51:00.480Z,60.58
2023-04-13T10:54:27.017Z,59.78
2023-04-13T10:57:48.619Z,59.84
2023-04-13T11:01:11.777Z,59.18
2023-04-13T11:04:34.138Z,59.52
2023-04-13T11:07:56.496Z,58.33
2023-04-13T11:11:27.148Z,57.70
2023-04-13T11:14:49.746Z,57.58
2023-04-13T11:18:11.858Z,57.96
2023-04-13T11:21:35.468Z,57.94
2023-04-13T11:25:08.985Z,56.33
2023-04-13T11:28:40.409Z,57.19
2023-04-13T11:32:02.162Z,57.47
2023-04-13T11:35:24.688Z,57.16
2023-04-13T11:38:49.776Z,57.29
2023-04-13T11:42:11.441Z,56.30
2023-04-13T11:45:35.675Z,55.63
2023-04-13T11:48:58.157Z,55.55
2023-04-13T11:52:20.743Z,54.91
2023-04-13T11:55:52.776Z,54.32
2023-04-13T11:59:15.982Z,54.66
2023-04-13T12:02:54.659Z,55.54
2023-04-13T12:06:24.296Z,55.39
2023-04-13T12:17:01.415Z,54.75
2023-04-13T12:20:20.439Z,55.81
2023-04-13T12:23:53.337Z,55.82
2023-04-13T12:27:18.947Z,55.66
2023-04-13T12:30:40.865Z,54.95
2023-04-13T12:34:02.228Z,54.47
2023-04-13T12:37:25.360Z,54.02
2023-04-13T12:40:46.960Z,54.33
2023-04-13T12:44:10.487Z,53.95
2023-04-13T12:47:32.190Z,53.85
2023-04-13T12:50:54.728Z,54.41
2023-04-13T12:54:18.067Z,54.87
2023-04-13T12:57:40.506Z,52.13
2023-04-13T13:01:02.877Z,52.09
2023-04-13T13:04:25.048Z,51.54
2023-04-13T13:07:46.628Z,50.86
2023-04-13T13:11:10.022Z,51.39
2023-04-13T13:14:32.404Z,52.87
2023-04-13T13:17:54.305Z,53.42
2023-04-13T13:21:16.020Z,53.25
2023-04-13T13:24:39.161Z,52.76
2023-04-13T13:28:14.158Z,51.68
2023-04-13T13:31:37.099Z,51.78
2023-04-13T13:34:59.011Z,51.76
2023-04-13T13:38:20.842Z,50.06
2023-04-13T13:41:42.177Z,50.86
2023-04-13T13:45:06.496Z,51.45
2023-04-13T13:48:28.377Z,51.07
2023-04-13T13:51:59.455Z,49.78
2023-04-13T13:55:24.017Z,50.54
2023-04-13T13:58:45.756Z,49.99
2023-04-13T14:02:09.727Z,49.44
2023-04-13T14:05:32.229Z,50.03
2023-04-13T14:08:55.830Z,49.37
2023-04-13T14:12:17.503Z,50.08
2023-04-13T14:15:38.851Z,49.87
2023-04-13T14:19:02.427Z,48.96
2023-04-13T14:22:24.628Z,48.21
2023-04-13T14:25:46.432Z,49.35
2023-04-13T14:29:09.020Z,47.72
2023-04-13T14:32:31.194Z,48.01
2023-04-13T14:35:54.453Z,47.46
2023-04-13T14:39:16.919Z,47.73
2023-04-13T14:42:38.341Z,49.09
2023-04-13T14:46:00.411Z,48.14
2023-04-13T14:49:22.080Z,47.98
2023-04-13T14:52:46.252Z,47.99
2023-04-13T14:56:08.469Z,47.74
2023-04-13T14:59:29.898Z,45.92
2023-04-13T15:02:52.488Z,46.01
2023-04-13T15:06:14.842Z,44.99
2023-04-13T15:09:40.258Z,44.81
2023-04-13T15:13:03.689Z,44.86
2023-04-13T15:16:25.618Z,45.40
2023-04-13T15:19:47.473Z,46.84
2023-04-13T15:23:09.530Z,45.92
2023-04-13T15:26:38.507Z,45.52
2023-04-13T15:30:03.142Z,46.90
2023-04-13T15:33:25.341Z,46.28
2023-04-13T15:36:47.187Z,45.70
2023-04-13T15:40:10.682Z,45.67
2023-04-13T15:43:33.726Z,46.78
2023-04-13T15:46:55.473Z,46.42
2023-04-13T15:50:18.435Z,46.05
2023-04-13T15:53:40.118Z,46.25
2023-04-13T15:57:02.452Z,46.40
2023-04-13T16:00:26.270Z,46.31
2023-04-13T16:03:48.263Z,46.47
2023-04-13T16:07:13.756Z,46.56
2023-04-13T16:10:37.193Z,46.36
2023-04-13T16:14:07.100Z,45.49
2023-04-13T16:17:34.549Z,45.58
2023-04-13T16:20:57.970Z,44.89
2023-04-13T16:24:21.095Z,46.10
2023-04-13T16:27:42.782Z,45.88
2023-04-13T16:31:04.803Z,46.00
2023-04-13T16:34:29.052Z,45.88
2023-04-13T16:37:50.541Z,45.78
2023-04-13T16:41:12.353Z,45.97
2023-04-13T16:44:34.539Z,43.59
2023-04-13T16:47:57.803Z,44.29
2023-04-13T16:51:20.994Z,43.63
2023-04-13T16:54:44.428Z,43.23
2023-04-13T16:58:07.457Z,42.44
2023-04-13T17:01:30.837Z,43.95
2023-04-13T17:04:54.607Z,43.80
2023-04-13T17:08:17.873Z,43.23
2023-04-13T17:11:39.253Z,43.70
2023-04-13T17:15:01.079Z,43.55
2023-04-13T17:18:25.863Z,43.98
2023-04-13T17:21:47.577Z,44.66
2023-04-13T17:25:11.349Z,45.32
2023-04-13T17:28:33.414Z,45.69
2023-04-13T17:31:54.949Z,46.70
2023-04-13T17:35:18.597Z,46.69
2023-04-13T17:38:40.643Z,47.44
2023-04-13T17:42:03.847Z,49.25
2023-04-13T17:45:25.329Z,49.74
2023-04-13T17:48:46.662Z,50.43
2023-04-13T17:52:09.603Z,51.05
2023-04-13T17:55:31.551Z,50.83
2023-04-13T17:58:54.948Z,51.52
2023-04-13T18:02:16.959Z,51.37
2023-04-13T18:05:44.330Z,51.73
2023-04-13T18:09:06.094Z,53.60
2023-04-13T18:12:27.518Z,53.50
2023-04-13T18:15:50.714Z,53.27
2023-04-13T18:19:12.286Z,53.32
2023-04-13T18:22:34.599Z,53.32
2023-04-13T18:25:56.346Z,53.22
2023-04-13T18:29:17.698Z,54.59
2023-04-13T18:32:40.958Z,54.83
2023-04-13T18:36:02.659Z,55.32
2023-04-13T18:39:24.653Z,55.26
2023-04-13T18:42:49.925Z,56.76
2023-04-13T18:46:12.516Z,57.12
2023-04-13T18:49:36.001Z,56.88
2023-04-13T18:52:58.046Z,56.70
2023-04-13T18:56:19.496Z,56.66
2023-04-13T18:59:40.912Z,57.69
2023-04-13T19:03:02.442Z,59.16
2023-04-13T19:06:26.362Z,57.91
2023-04-13T19:09:48.471Z,58.21
2023-04-13T19:13:15.541Z,59.75
2023-04-13T19:16:38.066Z,59.89
2023-04-13T19:19:59.551Z,60.05
2023-04-13T19:23:23.015Z,60.03
2023-04-13T19:26:44.595Z,61.32
2023-04-13T19:30:09.718Z,61.55
2023-04-13T19:33:33.461Z,62.46
2023-04-13T19:36:54.957Z,62.67
2023-04-13T19:40:18.033Z,62.59
2023-04-13T19:43:40.118Z,62.16
2023-04-13T19:47:01.928Z,62.05
2023-04-13T19:50:23.578Z,63.00
2023-04-13T19:53:44.963Z,63.37
2023-04-13T19:57:08.487Z,63.90
2023-04-13T20:00:30.103Z,63.28
2023-04-13T20:03:52.265Z,63.68
2023-04-13T20:07:14.568Z,63.10
2023-04-13T20:10:36.213Z,64.53
2023-04-13T20:13:59.186Z,65.78
2023-04-13T20:17:21.186Z,65.86
2023-04-13T20:20:43.347Z,65.65
2023-04-13T20:24:06.022Z,66.21
2023-04-13T20:27:27.764Z,66.21
2023-04-13T20:30:51.028Z,66.04
2023-04-13T20:34:13.612Z,66.35
2023-04-13T20:37:35.273Z,66.92
2023-04-13T20:40:57.043Z,67.16
2023-04-13T20:44:23.612Z,67.46
2023-04-13T20:47:50.392Z,68.33
2023-04-13T20:51:13.129Z,69.29
2023-04-13T20:54:34.739Z,69.64
2023-04-13T20:57:56.539Z,69.86
2023-04-13T21:01:18.311Z,69.70
2023-04-13T21:04:42.240Z,70.01
2023-04-13T21:08:03.985Z,70.20
2023-04-13T21:11:26.202Z,71.03
2023-04-13T21:14:47.806Z,70.58
2023-04-13T21:18:10.084Z,70.21
2023-04-13T21:21:33.027Z,70.14
2023-04-13T21:24:55.425Z,70.28
2023-04-13T21:28:17.850Z,70.27
2023-04-13T21:31:39.369Z,70.44
2023-04-13T21:35:01.162Z,70.57
2023-04-13T21:38:24.564Z,70.84
2023-04-13T21:41:46.363Z,71.20
2023-04-13T21:45:09.421Z,70.66
2023-04-13T21:48:31.101Z,71.40
2023-04-13T21:51:52.382Z,71.03
2023-04-13T21:55:18.897Z,71.47
2023-04-13T21:58:42.022Z,71.92
2023-04-13T22:02:04.110Z,71.66
2023-04-13T22:05:26.043Z,72.45
2023-04-13T22:08:47.377Z,72.34
2023-04-13T22:12:11.499Z,72.48
2023-04-13T22:15:33.715Z,72.62
2023-04-13T22:18:55.328Z,73.37
2023-04-13T22:22:16.773Z,73.09
2023-04-13T22:25:38.751Z,73.18
2023-04-13T22:29:02.363Z,73.30
2023-04-13T22:32:24.722Z,73.56
2023-04-13T22:35:46.448Z,73.63
2023-04-13T22:39:08.345Z,73.84
2023-04-13T22:42:30.069Z,74.15
2023-04-13T22:45:59.651Z,74.84
2023-04-13T22:49:21.938Z,74.76
2023-04-13T22:52:43.252Z,75.03
2023-04-13T22:56:05.600Z,75.63
2023-04-13T22:59:27.279Z,75.95
2023-04-13T23:02:55.825Z,76.37
2023-04-13T23:06:17.667Z,76.19
2023-04-13T23:09:39.349Z,76.68
2023-04-13T23:13:02.238Z,76.41
2023-04-13T23:16:23.631Z,76.32
2023-04-13T23:19:46.929Z,76.65
2023-04-13T23:23:08.304Z,77.07
2023-04-13T23:26:30.017Z,77.19
2023-04-13T23:29:51.705Z,77.44
2023-04-13T23:33:13.743Z,77.90
2023-04-13T23:36:37.377Z,78.04
2023-04-13T23:39:58.971Z,77.88
2023-04-13T23:43:21.355Z,78.16
2023-04-13T23:46:43.518Z,77.96
2023-04-13T23:50:06.060Z,78.47
2023-04-13T23:53:29.100Z,78.50
2023-04-13T23:56:50.660Z,78.77
